Terminal Aerodrome Forecast
Issued by NWS

Home | Current Version | Previous Version | Text Only | Print | Product List | Glossary On
Versions: 1 2 3 4 5 6 7 8 9 10 11 12 13 14 15 16 17 18 19 20
000
FTUS46 KMTR 010500
TAFMRY
TAF
KMRY 010538Z 0106/0206 12004KT P6SM VCSH BKN025 BKN050
     FM010700 09004KT P6SM FEW025
     FM011800 29006KT P6SM FEW030 SCT050
     FM020300 29004KT P6SM FEW030 SCT040=

USA.gov is the U.S. government's official web portal to all federal, state and local government web resources and services.